createdAt,value
2018-05-16T00:00:28.209Z,99996.35
2018-05-16T00:02:54.976Z,99988.88
2018-05-16T00:05:21.635Z,99982.95
2018-05-16T00:07:48.355Z,99989.03
2018-05-16T00:10:15.240Z,99981.53
2018-05-16T00:12:41.888Z,99966.15
2018-05-16T00:15:08.364Z,99964.06
2018-05-16T00:17:38.125Z,99975.16
2018-05-16T00:20:04.695Z,99967.93
2018-05-16T00:22:31.266Z,99956.99
2018-05-16T00:24:57.864Z,99959.73
2018-05-16T00:27:31.314Z,99952.88
2018-05-16T00:29:58.039Z,99956.14
2018-05-16T00:32:29.488Z,99958.01
2018-05-16T00:34:56.201Z,99967.07
2018-05-16T00:37:23.906Z,99960.53
2018-05-16T00:39:50.533Z,99950.58
2018-05-16T00:42:17.263Z,99953.48
2018-05-16T00:44:43.798Z,99950.02
2018-05-16T00:47:11.516Z,99951.11
2018-05-16T00:49:38.161Z,99947.96
2018-05-16T00:52:04.881Z,99931.87
2018-05-16T00:54:31.441Z,99927.06
2018-05-16T00:56:58.269Z,99935.92
2018-05-16T00:59:24.886Z,99936.15
2018-05-16T01:01:51.438Z,99927.67
2018-05-16T01:04:18.113Z,99915.72
2018-05-16T01:06:44.690Z,99901.75
2018-05-16T01:09:11.291Z,99911.05
2018-05-16T01:11:37.908Z,99907.61
2018-05-16T01:14:04.627Z,99906.06
2018-05-16T01:16:31.253Z,99910.91
2018-05-16T01:18:57.787Z,99908.64
2018-05-16T01:21:24.445Z,99903.88
2018-05-16T01:23:51.109Z,99903.52
2018-05-16T01:26:17.825Z,99905.52
2018-05-16T01:28:47.780Z,99906.50
2018-05-16T01:31:14.429Z,99900.44
2018-05-16T01:33:41.002Z,99902.72
2018-05-16T01:36:07.665Z,99895.66
2018-05-16T01:38:38.125Z,99888.26
2018-05-16T01:41:04.728Z,99892.23
2018-05-16T01:43:31.555Z,99903.73
2018-05-16T01:45:58.209Z,99908.50
2018-05-16T01:48:28.038Z,99922.89
2018-05-16T01:50:55.162Z,99925.95
2018-05-16T01:53:21.738Z,99924.23
2018-05-16T01:55:48.369Z,99921.83
2018-05-16T01:58:18.294Z,99915.75
2018-05-16T02:00:44.914Z,99922.19
2018-05-16T02:03:11.549Z,99915.61
2018-05-16T02:05:38.266Z,99916.66
2018-05-16T02:08:06.086Z,99919.34
2018-05-16T02:10:32.756Z,99922.14
2018-05-16T02:12:59.368Z,99925.88
2018-05-16T02:15:25.921Z,99922.26
2018-05-16T02:17:53.527Z,99922.52
2018-05-16T02:20:20.329Z,99926.77
2018-05-16T02:22:46.928Z,99927.98
2018-05-16T02:25:13.560Z,99925.13
2018-05-16T02:27:43.985Z,99927.80
2018-05-16T02:30:10.651Z,99938.19
2018-05-16T02:32:37.259Z,99935.17
2018-05-16T02:35:03.872Z,99938.86
2018-05-16T02:37:31.855Z,99941.92
2018-05-16T02:39:58.429Z,99934.75
2018-05-16T02:42:25.534Z,99936.67
2018-05-16T02:44:52.067Z,99921.80
2018-05-16T02:47:22.902Z,99917.28
2018-05-16T02:49:49.582Z,99914.73
2018-05-16T02:52:16.228Z,99910.57
2018-05-16T02:54:42.938Z,99903.23
2018-05-16T02:57:16.795Z,99906.97
2018-05-16T02:59:43.611Z,99894.83
2018-05-16T03:02:10.262Z,99890.33
2018-05-16T03:04:36.989Z,99886.53
2018-05-16T03:07:04.582Z,99878.05
2018-05-16T03:09:31.173Z,99883.17
2018-05-16T03:11:57.925Z,99887.16
2018-05-16T03:14:24.609Z,99881.92
2018-05-16T03:16:54.742Z,99874.81
2018-05-16T03:19:21.392Z,99878.86
2018-05-16T03:21:48.169Z,99877.47
2018-05-16T03:24:14.819Z,99887.83
2018-05-16T03:26:47.811Z,99891.48
2018-05-16T03:29:14.527Z,99882.17
2018-05-16T03:31:44.911Z,99883.16
2018-05-16T03:34:11.469Z,99876.33
2018-05-16T03:36:50.932Z,99868.98
2018-05-16T03:39:17.582Z,99869.98
2018-05-16T03:41:44.175Z,99872.80
2018-05-16T03:44:10.787Z,99865.91
2018-05-16T03:46:41.230Z,99881.16
2018-05-16T03:49:07.945Z,99885.42
2018-05-16T03:51:34.637Z,99886.55
2018-05-16T03:54:01.322Z,99891.69
2018-05-16T03:56:34.418Z,99897.30
2018-05-16T03:59:12.938Z,99901.98
2018-05-16T04:01:51.542Z,99904.05
2018-05-16T04:04:18.213Z,99907.48
2018-05-16T04:06:55.581Z,99904.61
2018-05-16T04:09:22.269Z,99894.59
2018-05-16T04:11:48.882Z,99903.45
2018-05-16T04:14:15.393Z,99902.94
2018-05-16T04:16:43.029Z,99895.17
2018-05-16T04:19:09.742Z,99895.19
2018-05-16T04:21:36.358Z,99889.27
2018-05-16T04:24:02.982Z,99893.20
2018-05-16T04:26:30.842Z,99896.13
2018-05-16T04:28:57.589Z,99898.28
2018-05-16T04:31:24.254Z,99893.22
2018-05-16T04:33:50.935Z,99891.64
2018-05-16T04:36:17.869Z,99885.80
2018-05-16T04:38:44.586Z,99870.94
2018-05-16T04:41:11.271Z,99864.91
2018-05-16T04:43:37.859Z,99858.63
2018-05-16T04:46:05.454Z,99864.50
2018-05-16T04:48:32.089Z,99873.93
2018-05-16T04:50:58.837Z,99885.45
2018-05-16T04:53:25.445Z,99897.52
2018-05-16T04:55:52.185Z,99903.39
2018-05-16T04:58:19.107Z,99904.97
2018-05-16T05:00:45.815Z,99912.36
2018-05-16T05:03:12.460Z,99901.52
2018-05-16T05:05:39.152Z,99897.81
2018-05-16T05:08:16.288Z,99902.19
2018-05-16T05:10:42.889Z,99903.27
2018-05-16T05:13:09.577Z,99904.02
2018-05-16T05:15:36.279Z,99906.47
2018-05-16T05:18:06.010Z,99911.43
2018-05-16T05:20:32.721Z,99909.11
2018-05-16T05:22:59.283Z,99900.63
2018-05-16T05:25:25.936Z,99897.23
2018-05-16T05:27:59.035Z,99906.42
2018-05-16T05:30:25.870Z,99914.70
2018-05-16T05:32:52.356Z,99891.66
2018-05-16T05:35:19.014Z,99891.20
2018-05-16T05:37:59.071Z,99888.91
2018-05-16T05:40:25.814Z,99888.58
2018-05-16T05:42:52.393Z,99887.78
2018-05-16T05:45:19.104Z,99898.61
2018-05-16T05:47:50.150Z,99889.88
2018-05-16T05:50:16.739Z,99883.30
2018-05-16T05:52:43.349Z,99884.27
2018-05-16T05:55:09.925Z,99889.70
2018-05-16T05:57:37.756Z,99901.75
2018-05-16T06:00:04.422Z,99912.38
2018-05-16T06:02:30.950Z,99909.30
2018-05-16T06:04:57.614Z,99892.99
2018-05-16T06:07:24.423Z,99897.07
2018-05-16T06:09:50.950Z,99900.58
2018-05-16T06:12:17.573Z,99909.41
2018-05-16T06:14:44.195Z,99911.26
2018-05-16T06:17:17.648Z,99913.03
2018-05-16T06:19:44.409Z,99909.27
2018-05-16T06:22:11.016Z,99906.89
2018-05-16T06:24:37.644Z,99910.77
2018-05-16T06:27:05.529Z,99910.69
2018-05-16T06:29:32.139Z,99914.27
2018-05-16T06:31:58.818Z,99911.13
2018-05-16T06:34:25.483Z,99912.38
2018-05-16T06:36:56.564Z,99906.92
2018-05-16T06:39:23.202Z,99911.41
2018-05-16T06:41:49.801Z,99926.72
2018-05-16T06:47:05.601Z,99938.56
2018-05-16T06:49:32.289Z,99933.66
2018-05-16T06:51:59.008Z,99928.78
2018-05-16T06:54:25.729Z,99942.71
2018-05-16T06:56:57.729Z,99950.13
2018-05-16T06:59:24.301Z,99945.36
2018-05-16T07:01:51.050Z,99941.56
2018-05-16T07:04:17.640Z,99941.00
2018-05-16T07:06:44.361Z,99946.17
2018-05-16T07:09:11.069Z,99951.00
2018-05-16T07:11:37.746Z,99949.55
2018-05-16T07:14:04.411Z,99955.94
2018-05-16T07:16:31.240Z,99948.75
2018-05-16T07:18:57.881Z,99952.58
2018-05-16T07:21:24.530Z,99958.34
2018-05-16T07:23:51.180Z,99951.66
2018-05-16T07:26:18.020Z,99950.61
2018-05-16T07:28:44.682Z,99957.65
2018-05-16T07:34:08.557Z,99953.44
2018-05-16T07:36:36.489Z,99951.41
2018-05-16T07:39:03.078Z,99955.08
2018-05-16T07:41:29.745Z,99965.56
2018-05-16T07:43:56.374Z,99960.16
2018-05-16T07:46:23.271Z,99966.31
2018-05-16T07:48:49.981Z,99952.28
2018-05-16T07:51:16.635Z,99959.38
2018-05-16T07:53:43.289Z,99964.97
2018-05-16T07:56:13.581Z,99964.13
2018-05-16T07:58:40.226Z,99958.45
2018-05-16T08:01:06.792Z,99950.05
2018-05-16T08:03:33.449Z,99959.40
2018-05-16T08:06:00.448Z,99953.96
2018-05-16T08:08:27.322Z,99957.78
2018-05-16T08:10:54.568Z,99952.72
2018-05-16T08:13:21.212Z,99946.75
2018-05-16T08:16:06.526Z,99939.15
2018-05-16T08:18:40.034Z,99942.41
2018-05-16T08:21:06.792Z,99936.67
2018-05-16T08:23:33.451Z,99931.20
2018-05-16T08:26:00.285Z,99930.89
2018-05-16T08:28:26.979Z,99929.52
2018-05-16T08:30:53.577Z,99925.81
2018-05-16T08:33:20.237Z,99929.21
2018-05-16T08:35:47.010Z,99926.20
2018-05-16T08:38:13.650Z,99939.23
2018-05-16T08:40:40.214Z,99948.75
2018-05-16T08:43:06.884Z,99951.17
2018-05-16T08:45:33.422Z,99947.50
2018-05-16T08:48:00.090Z,99947.97
2018-05-16T08:50:26.749Z,99944.83
2018-05-16T08:52:53.355Z,99943.47
2018-05-16T08:55:19.926Z,99939.22
2018-05-16T08:57:46.609Z,99941.63
2018-05-16T09:00:13.316Z,99946.66
2018-05-16T09:02:39.893Z,99950.74
2018-05-16T09:05:06.577Z,99949.13
2018-05-16T09:07:33.362Z,99940.73
2018-05-16T09:09:59.982Z,99945.73
2018-05-16T09:12:26.525Z,99934.70
2018-05-16T09:14:53.175Z,99944.64
2018-05-16T09:17:21.041Z,99941.83
2018-05-16T09:19:47.671Z,99944.55
2018-05-16T09:22:14.286Z,99942.55
2018-05-16T09:24:40.845Z,99936.38
2018-05-16T09:27:10.801Z,99931.16
2018-05-16T09:29:37.504Z,99936.66
2018-05-16T09:32:04.190Z,99937.23
2018-05-16T09:34:30.904Z,99934.17
2018-05-16T09:36:58.520Z,99936.81
2018-05-16T09:39:25.215Z,99943.93
2018-05-16T09:41:51.888Z,99935.55
2018-05-16T09:44:18.506Z,99937.14
2018-05-16T09:46:46.388Z,99941.30
2018-05-16T09:49:13.042Z,99943.21
2018-05-16T09:51:39.657Z,99940.71
2018-05-16T09:54:06.333Z,99936.94
2018-05-16T09:56:33.146Z,99947.37
2018-05-16T09:58:59.790Z,99936.30
2018-05-16T10:01:26.496Z,99941.30
2018-05-16T10:03:53.137Z,99939.77
2018-05-16T10:06:20.889Z,99934.84
2018-05-16T10:08:47.521Z,99931.55
2018-05-16T10:11:14.167Z,99934.71
2018-05-16T10:13:41.026Z,99932.19
2018-05-16T10:16:08.982Z,99932.31
2018-05-16T10:18:35.677Z,99931.82
2018-05-16T10:21:02.343Z,99943.38
2018-05-16T10:23:28.951Z,99943.45
2018-05-16T10:25:59.078Z,99939.53
2018-05-16T10:28:25.704Z,99945.94
2018-05-16T10:30:52.350Z,99937.00
2018-05-16T10:33:19.050Z,99934.13
2018-05-16T10:35:50.326Z,99937.19
2018-05-16T10:38:16.966Z,99936.66
2018-05-16T10:40:43.532Z,99925.36
2018-05-16T10:43:10.481Z,99935.03
2018-05-16T10:45:40.302Z,99938.11
2018-05-16T10:48:06.937Z,99940.44
2018-05-16T10:50:33.540Z,99946.69
2018-05-16T10:53:00.167Z,99938.07
2018-05-16T10:55:30.561Z,99936.66
2018-05-16T10:58:05.651Z,99943.59
2018-05-16T11:00:32.459Z,99943.54
2018-05-16T11:02:59.184Z,99940.27
2018-05-16T11:05:25.954Z,99938.22
2018-05-16T11:07:52.682Z,99936.91
2018-05-16T11:10:19.378Z,99935.81
2018-05-16T11:12:46.149Z,99938.32
2018-05-16T11:15:12.867Z,99948.13
2018-05-16T11:17:39.529Z,99947.20
2018-05-16T11:20:06.183Z,99950.01
2018-05-16T11:22:32.856Z,99948.63
2018-05-16T11:24:59.554Z,99949.81
2018-05-16T11:27:26.126Z,99949.80
2018-05-16T11:29:52.804Z,99958.84
2018-05-16T11:32:19.461Z,99953.32
2018-05-16T11:34:46.082Z,99951.84
2018-05-16T11:37:16.122Z,99960.16
2018-05-16T11:39:42.799Z,99967.27
2018-05-16T11:42:09.493Z,99965.00
2018-05-16T11:44:36.137Z,99961.36
2018-05-16T11:49:29.901Z,99956.03
2018-05-16T11:51:56.597Z,99955.05
2018-05-16T11:54:23.317Z,99956.66
2018-05-16T11:56:54.482Z,99957.41
2018-05-16T11:59:21.248Z,99969.31
2018-05-16T12:01:47.823Z,99958.30
2018-05-16T12:04:14.446Z,99957.95
2018-05-16T12:06:42.244Z,99956.75
2018-05-16T12:09:09.082Z,99954.09
2018-05-16T12:11:35.570Z,99953.05
2018-05-16T12:14:02.149Z,99947.90
2018-05-16T12:16:30.080Z,99953.16
2018-05-16T12:18:56.768Z,99949.03
2018-05-16T12:21:23.430Z,99948.64
2018-05-16T12:23:50.078Z,99939.91
2018-05-16T12:26:19.668Z,99953.03
2018-05-16T12:28:46.274Z,99940.52
2018-05-16T12:31:12.981Z,99943.83
2018-05-16T12:33:39.501Z,99938.22
2018-05-16T12:36:09.766Z,99938.89
2018-05-16T12:38:36.463Z,99951.28
2018-05-16T12:41:03.178Z,99939.78
2018-05-16T12:43:30.687Z,99946.31
2018-05-16T12:45:57.472Z,99940.55
2018-05-16T12:48:23.987Z,99951.78
2018-05-16T12:50:50.689Z,99943.59
2018-05-16T12:53:17.357Z,99940.05
2018-05-16T12:55:45.005Z,99951.79
2018-05-16T12:58:11.647Z,99941.73
2018-05-16T13:00:38.370Z,99942.45
2018-05-16T13:03:05.010Z,99941.91
2018-05-16T13:05:35.437Z,99933.80
2018-05-16T13:08:02.108Z,99938.98
2018-05-16T13:10:28.780Z,99940.00
2018-05-16T13:12:55.442Z,99934.19
2018-05-16T13:15:23.122Z,99932.81
2018-05-16T13:17:49.689Z,99933.28
2018-05-16T13:20:16.305Z,99931.34
2018-05-16T13:22:42.950Z,99942.62
2018-05-16T13:25:10.585Z,99938.91
2018-05-16T13:27:37.216Z,99936.13
2018-05-16T13:30:03.757Z,99934.05
2018-05-16T13:32:30.310Z,99937.67
2018-05-16T13:34:57.902Z,99940.87
2018-05-16T13:37:24.554Z,99941.52
2018-05-16T13:39:51.194Z,99942.56
2018-05-16T13:42:18.251Z,99943.04
2018-05-16T13:44:45.881Z,99942.89
2018-05-16T13:47:12.469Z,99934.50
2018-05-16T13:49:39.169Z,99928.88
2018-05-16T13:55:05.701Z,99928.55
2018-05-16T13:57:32.461Z,99935.56
2018-05-16T13:59:59.570Z,99926.09
2018-05-16T14:02:26.226Z,99924.63
2018-05-16T14:04:56.737Z,99920.02
2018-05-16T14:07:23.419Z,99924.47
2018-05-16T14:09:50.102Z,99919.21
2018-05-16T14:12:16.543Z,99924.87
2018-05-16T14:14:43.156Z,99915.45
2018-05-16T14:17:09.755Z,99912.99
2018-05-16T14:19:36.440Z,99918.20
2018-05-16T14:22:03.062Z,99908.64
2018-05-16T14:24:29.697Z,99903.49
2018-05-16T14:26:56.529Z,99898.80
2018-05-16T14:29:23.085Z,99900.55
2018-05-16T14:31:49.717Z,99898.71
2018-05-16T14:34:16.461Z,99922.55
2018-05-16T14:36:46.871Z,99931.92
2018-05-16T14:39:13.501Z,99911.08
2018-05-16T14:41:40.133Z,99891.95
2018-05-16T14:44:06.715Z,99890.71
2018-05-16T14:46:36.958Z,99901.11
2018-05-16T14:49:03.540Z,99907.17
2018-05-16T14:51:30.261Z,99891.82
2018-05-16T14:53:56.778Z,99880.92
2018-05-16T14:56:36.735Z,99898.66
2018-05-16T14:59:03.342Z,99920.45
2018-05-16T15:01:29.906Z,99913.12
2018-05-16T15:03:56.539Z,99912.48
2018-05-16T15:06:28.905Z,99900.88
2018-05-16T15:08:55.613Z,99920.02
2018-05-16T15:11:22.245Z,99942.57
2018-05-16T15:13:48.873Z,99932.92
2018-05-16T15:16:20.009Z,99907.85
2018-05-16T15:18:46.710Z,99912.13
2018-05-16T15:21:13.437Z,99943.00
2018-05-16T15:23:39.969Z,99944.87
2018-05-16T15:26:11.398Z,99950.10
2018-05-16T15:28:38.029Z,99960.68
2018-05-16T15:31:04.749Z,99976.05
2018-05-16T15:33:31.377Z,99978.03
2018-05-16T15:35:57.990Z,99981.05
2018-05-16T15:38:24.638Z,99985.54
2018-05-16T15:40:51.221Z,100003.06
2018-05-16T15:43:17.849Z,100026.78
2018-05-16T15:45:48.347Z,100036.72
2018-05-16T15:48:15.022Z,100030.94
2018-05-16T15:50:41.763Z,100018.22
2018-05-16T15:53:08.384Z,100005.95
2018-05-16T15:55:42.394Z,99997.62
2018-05-16T15:58:08.937Z,99995.51
2018-05-16T16:00:35.492Z,100002.05
2018-05-16T16:03:02.144Z,100001.72
2018-05-16T16:05:37.607Z,99997.90
2018-05-16T16:08:04.413Z,99996.03
2018-05-16T16:10:31.117Z,99992.52
2018-05-16T16:12:57.977Z,99988.28
2018-05-16T16:15:28.737Z,99987.65
2018-05-16T16:17:55.383Z,99985.46
2018-05-16T16:20:21.898Z,99996.55
2018-05-16T16:22:48.463Z,100001.54
2018-05-16T16:25:16.178Z,100000.61
2018-05-16T16:27:42.976Z,99985.47
2018-05-16T16:30:09.483Z,99986.55
2018-05-16T16:32:36.151Z,99986.30
2018-05-16T16:35:03.791Z,99990.86
2018-05-16T16:37:30.478Z,99984.84
2018-05-16T16:39:57.129Z,99975.61
2018-05-16T16:42:23.919Z,99979.14
2018-05-16T16:44:54.543Z,99990.55
2018-05-16T16:47:21.140Z,100004.39
2018-05-16T16:49:47.850Z,100019.98
2018-05-16T16:52:14.494Z,100033.59
2018-05-16T16:54:43.166Z,100031.97
2018-05-16T16:57:10.623Z,100013.33
2018-05-16T16:59:37.194Z,100005.22
2018-05-16T17:02:03.769Z,100011.92
2018-05-16T17:04:31.860Z,100002.26
2018-05-16T17:06:59.148Z,100016.91
2018-05-16T17:09:25.863Z,100023.31
2018-05-16T17:11:52.408Z,100025.28
2018-05-16T17:14:19.078Z,100027.97
2018-05-16T17:16:46.242Z,100024.91
2018-05-16T17:19:12.884Z,100012.30
2018-05-16T17:21:39.567Z,100000.13
2018-05-16T17:24:06.241Z,100006.90
2018-05-16T17:26:32.923Z,100027.55
2018-05-16T17:28:59.583Z,100026.78
2018-05-16T17:31:26.286Z,100026.41
2018-05-16T17:33:52.982Z,100033.46
2018-05-16T17:36:19.746Z,100030.98
2018-05-16T17:38:46.478Z,100024.30
2018-05-16T17:41:13.195Z,100016.24
2018-05-16T17:43:39.952Z,100007.86
2018-05-16T17:46:12.918Z,99995.30
2018-05-16T17:48:40.068Z,99977.23
2018-05-16T17:51:06.733Z,99970.87
2018-05-16T17:53:33.389Z,99985.69
2018-05-16T17:56:03.525Z,99992.75
2018-05-16T17:58:30.488Z,99993.92
2018-05-16T18:00:57.098Z,100002.05
2018-05-16T18:03:23.718Z,100006.79
2018-05-16T18:05:58.562Z,100021.76
2018-05-16T18:08:25.204Z,100025.23
2018-05-16T18:10:51.975Z,100037.46
2018-05-16T18:17:00.279Z,100031.69
2018-05-16T18:19:26.849Z,100027.34
2018-05-16T18:21:53.444Z,100040.14
2018-05-16T18:24:24.074Z,100042.17
2018-05-16T18:26:51.102Z,100040.79
2018-05-16T18:29:17.795Z,100035.52
2018-05-16T18:31:44.311Z,100040.13
2018-05-16T18:34:14.515Z,100040.74
2018-05-16T18:36:41.406Z,100032.44
2018-05-16T18:39:08.761Z,100030.56
2018-05-16T18:41:36.830Z,100035.43
2018-05-16T18:44:05.035Z,100041.79
2018-05-16T18:46:31.754Z,100039.08
2018-05-16T18:48:58.615Z,100046.42
2018-05-16T18:51:25.275Z,100047.06
2018-05-16T18:53:52.251Z,100049.72
2018-05-16T18:56:19.494Z,100040.33
2018-05-16T18:58:46.215Z,100034.30
2018-05-16T19:01:14.170Z,100037.21
2018-05-16T19:03:40.786Z,100041.13
2018-05-16T19:06:08.606Z,100041.41
2018-05-16T19:08:35.204Z,100041.80
2018-05-16T19:11:01.955Z,100047.69
2018-05-16T19:13:30.019Z,100050.08
2018-05-16T19:15:57.079Z,100053.73
2018-05-16T19:18:23.655Z,100054.88
2018-05-16T19:20:50.314Z,100061.02
2018-05-16T19:23:16.907Z,100062.19
2018-05-16T19:25:47.044Z,100060.87
2018-05-16T19:28:13.795Z,100062.41
2018-05-16T19:30:41.738Z,100058.95
2018-05-16T19:33:08.624Z,100060.01
2018-05-16T19:35:39.270Z,100059.67
2018-05-16T19:38:05.937Z,100063.50
2018-05-16T19:40:32.769Z,100067.89
2018-05-16T19:42:59.254Z,100070.87
2018-05-16T19:45:32.507Z,100072.20
2018-05-16T19:47:59.138Z,100067.34
2018-05-16T19:50:25.790Z,100068.67
2018-05-16T19:52:53.086Z,100066.60
2018-05-16T19:55:24.582Z,100063.77
2018-05-16T19:57:51.608Z,100063.77
2018-05-16T20:00:19.067Z,100060.61
2018-05-16T20:02:45.789Z,100062.25
2018-05-16T20:05:18.814Z,100065.08
2018-05-16T20:07:45.487Z,100068.88
2018-05-16T20:10:13.128Z,100068.29
2018-05-16T20:12:39.849Z,100063.08
2018-05-16T20:15:10.406Z,100058.53
2018-05-16T20:17:37.178Z,100064.09
2018-05-16T20:20:05.932Z,100071.42
2018-05-16T20:22:32.609Z,100070.45
2018-05-16T20:25:09.226Z,100071.42
2018-05-16T20:27:35.871Z,100075.34
2018-05-16T20:30:02.416Z,100078.17
2018-05-16T20:32:28.945Z,100079.50
2018-05-16T20:34:58.982Z,100072.95
2018-05-16T20:37:25.684Z,100068.76
2018-05-16T20:39:52.297Z,100066.56
2018-05-16T20:42:18.917Z,100066.05
2018-05-16T20:44:46.807Z,100060.69
2018-05-16T20:47:13.375Z,100057.94
2018-05-16T20:49:39.980Z,100059.23
2018-05-16T20:52:06.700Z,100060.36
2018-05-16T20:54:36.640Z,100054.64
2018-05-16T20:57:03.296Z,100056.72
2018-05-16T20:59:30.011Z,100053.20
2018-05-16T21:02:03.097Z,100053.70
2018-05-16T21:04:30.795Z,100054.22
2018-05-16T21:06:57.359Z,100052.72
2018-05-16T21:09:23.975Z,100046.41
2018-05-16T21:11:51.177Z,100047.82
2018-05-16T21:14:21.989Z,100047.14
2018-05-16T21:16:48.657Z,100048.59
2018-05-16T21:19:15.226Z,100053.84
2018-05-16T21:21:41.774Z,100052.20
2018-05-16T21:24:12.076Z,100055.38
2018-05-16T21:26:38.657Z,100054.95
2018-05-16T21:29:05.335Z,100053.39
2018-05-16T21:31:32.032Z,100059.42
2018-05-16T21:34:02.677Z,100051.67
2018-05-16T21:36:29.291Z,100045.45
2018-05-16T21:38:56.301Z,100041.82
2018-05-16T21:41:22.969Z,100048.13
2018-05-16T21:43:54.790Z,100052.12
2018-05-16T21:46:21.490Z,100055.30
2018-05-16T21:48:48.194Z,100052.01
2018-05-16T21:51:14.816Z,100053.63
2018-05-16T21:53:45.160Z,100055.45
2018-05-16T21:56:11.892Z,100053.45
2018-05-16T21:58:38.585Z,100052.53
2018-05-16T22:01:05.214Z,100045.12
2018-05-16T22:03:31.799Z,100054.09
2018-05-16T22:05:58.529Z,100059.73
2018-05-16T22:08:25.133Z,100052.88
2018-05-16T22:10:51.824Z,100049.43
2018-05-16T22:13:18.575Z,100050.14
2018-05-16T22:15:55.289Z,100057.43
2018-05-16T22:18:21.841Z,100049.45
2018-05-16T22:20:48.516Z,100055.77
2018-05-16T22:23:15.138Z,100054.41
2018-05-16T22:25:41.808Z,100060.52
2018-05-16T22:28:08.520Z,100066.21
2018-05-16T22:30:41.213Z,100064.59
2018-05-16T22:33:14.063Z,100066.82
2018-05-16T22:35:46.790Z,100067.53
2018-05-16T22:38:19.461Z,100067.30
2018-05-16T22:40:52.013Z,100068.74
2018-05-16T22:43:18.777Z,100065.13
2018-05-16T22:45:49.412Z,100062.78
2018-05-16T22:48:16.391Z,100065.17
2018-05-16T22:50:43.361Z,100070.66
2018-05-16T22:53:10.010Z,100064.92
2018-05-16T22:55:37.682Z,100060.21
2018-05-16T22:58:04.316Z,100053.84
2018-05-16T23:00:31.105Z,100049.84
2018-05-16T23:02:57.760Z,100041.48
2018-05-16T23:05:25.448Z,100040.55
2018-05-16T23:07:52.075Z,100041.88
2018-05-16T23:10:18.753Z,100042.76
2018-05-16T23:12:45.466Z,100033.55
2018-05-16T23:15:16.506Z,100038.77
2018-05-16T23:17:43.134Z,100036.72
2018-05-16T23:20:09.814Z,100036.98
2018-05-16T23:22:37.083Z,100033.70
2018-05-16T23:25:03.872Z,100038.27
2018-05-16T23:27:30.529Z,100033.94
2018-05-16T23:29:57.254Z,100024.48
2018-05-16T23:32:23.973Z,100025.29
2018-05-16T23:34:54.704Z,100023.03
2018-05-16T23:37:21.345Z,100027.09
2018-05-16T23:39:48.099Z,100020.70
2018-05-16T23:42:14.805Z,100013.57
2018-05-16T23:44:42.438Z,100027.20
2018-05-16T23:47:09.037Z,100024.69
2018-05-16T23:49:35.675Z,100026.50
2018-05-16T23:52:02.303Z,100028.00
2018-05-16T23:54:30.041Z,100016.87
2018-05-16T23:56:56.793Z,100013.03
2018-05-16T23:59:23.425Z,100009.27
